createdAt,value
2023-05-08T00:00:14.729Z,12.83
2023-05-08T00:02:43.263Z,12.77
2023-05-08T00:05:11.077Z,12.77
2023-05-08T00:07:38.885Z,12.75
2023-05-08T00:10:10.783Z,12.73
2023-05-08T00:12:39.257Z,12.72
2023-05-08T00:15:08.045Z,12.70
2023-05-08T00:17:37.588Z,12.67
2023-05-08T00:20:07.123Z,12.65
2023-05-08T00:22:34.817Z,12.64
2023-05-08T00:25:03.147Z,12.62
2023-05-08T00:27:32.403Z,12.60
2023-05-08T00:30:01.490Z,12.60
2023-05-08T00:32:30.046Z,12.59
2023-05-08T00:51:55.405Z,12.38
2023-05-08T00:54:23.496Z,12.37
2023-05-08T00:56:54.618Z,12.37
2023-05-08T00:59:23.202Z,12.36
2023-05-08T01:01:51.838Z,12.34
2023-05-08T01:04:22.084Z,12.33
2023-05-08T01:06:50.331Z,12.33
2023-05-08T01:09:19.366Z,12.31
2023-05-08T01:11:53.304Z,12.29
2023-05-08T01:14:25.959Z,12.24
2023-05-08T01:16:59.648Z,12.22
2023-05-08T01:19:54.476Z,12.21
2023-05-08T01:22:40.252Z,12.17
2023-05-08T01:25:38.374Z,12.14
2023-05-08T01:28:55.732Z,12.13
2023-05-08T01:31:32.405Z,12.11
2023-05-08T01:34:07.722Z,12.09
2023-05-08T01:36:42.517Z,12.05
2023-05-08T01:39:37.456Z,12.00
2023-05-08T01:42:08.950Z,11.97
2023-05-08T01:44:44.609Z,11.98
2023-05-08T01:47:16.389Z,11.90
2023-05-08T01:49:47.069Z,11.88
2023-05-08T01:52:18.572Z,11.85
2023-05-08T01:54:51.182Z,11.83
2023-05-08T01:57:20.821Z,11.80
2023-05-08T01:59:50.917Z,11.78
2023-05-08T02:02:19.961Z,11.76
2023-05-08T02:04:50.322Z,11.74
2023-05-08T02:07:18.479Z,11.70
2023-05-08T02:09:49.326Z,11.68
2023-05-08T02:12:18.368Z,11.67
2023-05-08T02:14:49.073Z,11.66
2023-05-08T02:17:18.556Z,11.65
2023-05-08T02:19:50.621Z,11.63
2023-05-08T02:22:22.383Z,11.61
2023-05-08T02:24:56.192Z,11.59
2023-05-08T02:27:26.904Z,11.57
2023-05-08T02:29:56.177Z,11.53
2023-05-08T02:32:26.606Z,11.50
2023-05-08T02:35:03.053Z,11.49
2023-05-08T02:37:36.387Z,11.48
2023-05-08T02:40:07.350Z,11.45
2023-05-08T02:42:39.468Z,11.43
2023-05-08T02:45:12.136Z,11.41
2023-05-08T02:47:47.118Z,11.39
2023-05-08T02:50:24.407Z,11.37
2023-05-08T02:52:55.644Z,11.37
2023-05-08T02:55:34.801Z,11.35
2023-05-08T02:58:13.019Z,11.33
2023-05-08T03:00:46.158Z,11.30
2023-05-08T03:03:20.454Z,11.27
2023-05-08T03:05:53.548Z,11.26
2023-05-08T03:08:26.765Z,11.23
2023-05-08T03:10:58.859Z,11.22
2023-05-08T03:14:17.349Z,11.20
2023-05-08T03:16:48.565Z,11.17
2023-05-08T03:19:23.385Z,11.16
2023-05-08T03:21:56.877Z,11.15
2023-05-08T03:24:26.618Z,11.12
2023-05-08T03:26:56.376Z,11.10
2023-05-08T03:29:27.058Z,11.08
2023-05-08T03:31:56.982Z,11.06
2023-05-08T03:34:25.431Z,11.05
2023-05-08T03:36:54.790Z,11.04
2023-05-08T03:39:26.400Z,11.02
2023-05-08T03:41:56.768Z,11.01
2023-05-08T03:44:26.249Z,10.98
2023-05-08T03:46:57.830Z,10.96
2023-05-08T03:49:28.379Z,10.95
2023-05-08T03:52:01.836Z,10.93
2023-05-08T03:54:30.202Z,10.91
2023-05-08T03:57:23.163Z,10.91
2023-05-08T04:00:01.061Z,10.90
2023-05-08T04:02:35.150Z,10.88
2023-05-08T04:05:15.536Z,10.87
2023-05-08T04:07:51.734Z,10.87
2023-05-08T04:10:25.554Z,10.86
2023-05-08T04:12:58.686Z,10.86
2023-05-08T04:15:30.100Z,10.86
2023-05-08T04:18:04.207Z,10.85
2023-05-08T04:20:34.409Z,10.84
2023-05-08T04:23:05.441Z,10.84
2023-05-08T04:25:37.078Z,10.85
2023-05-08T04:28:06.379Z,10.85
2023-05-08T04:30:35.560Z,10.84
2023-05-08T04:33:05.722Z,10.84
2023-05-08T04:35:34.916Z,10.83
2023-05-08T04:38:04.728Z,10.84
2023-05-08T04:40:33.207Z,10.83
2023-05-08T04:43:01.829Z,10.83
2023-05-08T04:45:31.295Z,10.83
2023-05-08T04:47:59.558Z,10.82
2023-05-08T04:50:27.480Z,10.82
2023-05-08T04:52:55.689Z,10.80
2023-05-08T04:55:25.416Z,10.79
2023-05-08T04:57:53.495Z,10.80
2023-05-08T05:00:23.544Z,10.81
2023-05-08T05:02:51.643Z,10.83
2023-05-08T05:05:19.577Z,10.84
2023-05-08T05:07:47.376Z,10.83
2023-05-08T05:10:18.505Z,10.85
2023-05-08T05:12:48.650Z,10.87
2023-05-08T05:15:16.600Z,10.88
2023-05-08T05:17:44.258Z,10.90
2023-05-08T05:20:13.603Z,10.92
2023-05-08T05:22:42.460Z,10.95
2023-05-08T05:25:10.874Z,10.98
2023-05-08T05:27:39.045Z,11.03
2023-05-08T05:30:10.450Z,11.08
2023-05-08T05:32:39.326Z,11.10
2023-05-08T05:35:08.713Z,11.15
2023-05-08T05:37:37.600Z,11.22
2023-05-08T05:40:06.424Z,11.28
2023-05-08T05:42:35.718Z,11.34
2023-05-08T05:45:32.528Z,11.42
2023-05-08T05:48:01.057Z,11.49
2023-05-08T05:50:29.402Z,11.56
2023-05-08T05:52:57.961Z,11.64
2023-05-08T05:55:28.409Z,11.70
2023-05-08T05:57:58.856Z,11.75
2023-05-08T06:00:53.403Z,11.83
2023-05-08T06:03:21.549Z,11.91
2023-05-08T06:06:16.404Z,11.97
2023-05-08T06:08:44.145Z,12.03
2023-05-08T06:11:12.651Z,12.10
2023-05-08T06:13:41.393Z,12.16
2023-05-08T06:16:10.730Z,12.22
2023-05-08T06:18:38.298Z,12.26
2023-05-08T06:21:06.009Z,12.31
2023-05-08T06:23:33.699Z,12.35
2023-05-08T06:26:01.268Z,12.40
2023-05-08T06:28:29.507Z,12.46
2023-05-08T06:30:57.293Z,12.52
2023-05-08T06:33:27.025Z,12.60
2023-05-08T06:35:55.061Z,12.67
2023-05-08T06:41:15.415Z,12.77
2023-05-08T06:43:45.396Z,12.76
2023-05-08T06:46:13.078Z,12.84
2023-05-08T06:48:42.234Z,12.92
2023-05-08T06:51:09.850Z,12.97
2023-05-08T06:53:38.407Z,13.04
2023-05-08T06:56:06.809Z,13.06
2023-05-08T06:58:36.396Z,13.13
2023-05-08T07:01:04.097Z,13.18
2023-05-08T07:03:34.428Z,13.28
2023-05-08T07:06:04.468Z,13.39
2023-05-08T07:08:32.800Z,13.44
2023-05-08T07:11:00.408Z,13.51
2023-05-08T07:13:28.581Z,13.65
2023-05-08T07:15:58.452Z,13.83
2023-05-08T07:18:27.027Z,14.04
2023-05-08T07:20:54.623Z,14.16
2023-05-08T07:23:23.755Z,14.23
2023-05-08T07:25:53.429Z,14.23
2023-05-08T07:28:21.010Z,14.28
2023-05-08T07:30:52.403Z,14.37
2023-05-08T07:33:20.304Z,14.46
2023-05-08T07:35:47.888Z,14.54
2023-05-08T07:38:15.448Z,14.58
2023-05-08T07:40:44.530Z,14.58
2023-05-08T07:43:13.101Z,14.63
2023-05-08T07:45:40.899Z,14.72
2023-05-08T07:48:08.860Z,14.82
2023-05-08T07:50:37.263Z,14.91
2023-05-08T07:53:04.931Z,15.01
2023-05-08T07:55:32.773Z,15.13
2023-05-08T07:58:04.404Z,15.21
2023-05-08T08:00:32.070Z,15.29
2023-05-08T08:03:00.684Z,15.40
2023-05-08T08:05:28.636Z,15.34
2023-05-08T08:07:56.231Z,15.32
2023-05-08T08:10:23.966Z,15.36
2023-05-08T08:12:52.528Z,15.41
2023-05-08T08:15:21.870Z,15.45
2023-05-08T08:17:49.802Z,15.51
2023-05-08T08:20:18.256Z,15.62
2023-05-08T08:22:45.864Z,15.71
2023-05-08T08:25:15.508Z,15.81
2023-05-08T08:27:44.847Z,15.91
2023-05-08T08:30:18.282Z,15.98
2023-05-08T08:32:49.460Z,16.06
2023-05-08T08:35:18.198Z,16.13
2023-05-08T08:37:46.067Z,16.17
2023-05-08T08:40:13.900Z,16.20
2023-05-08T08:42:43.433Z,16.23
2023-05-08T08:45:12.137Z,16.29
2023-05-08T08:47:41.539Z,16.38
2023-05-08T08:50:14.714Z,16.50
2023-05-08T08:52:49.206Z,16.60
2023-05-08T08:55:18.922Z,16.64
2023-05-08T08:57:55.593Z,16.76
2023-05-08T09:00:26.725Z,16.86
2023-05-08T09:02:54.652Z,16.93
2023-05-08T09:05:26.473Z,17.05
2023-05-08T09:07:56.415Z,17.14
2023-05-08T09:10:25.713Z,17.19
2023-05-08T09:15:49.003Z,17.40
2023-05-08T09:18:17.426Z,17.48
2023-05-08T09:20:49.791Z,17.53
2023-05-08T09:23:18.024Z,17.61
2023-05-08T09:25:46.517Z,17.68
2023-05-08T09:28:20.574Z,17.77
2023-05-08T09:30:56.847Z,17.99
2023-05-08T09:33:27.520Z,18.27
2023-05-08T09:35:58.641Z,18.40
2023-05-08T09:38:35.480Z,18.54
2023-05-08T09:41:10.941Z,18.67
2023-05-08T09:43:39.254Z,18.72
2023-05-08T09:46:22.913Z,18.78
2023-05-08T09:48:50.912Z,18.87
2023-05-08T09:51:20.429Z,18.98
2023-05-08T09:53:48.249Z,19.07
2023-05-08T09:56:16.007Z,19.19
2023-05-08T09:58:46.544Z,19.24
2023-05-08T10:01:29.615Z,19.34
2023-05-08T10:03:57.289Z,19.43
2023-05-08T10:06:28.275Z,19.47
2023-05-08T10:09:12.141Z,19.54
2023-05-08T10:11:40.745Z,19.55
2023-05-08T10:14:10.511Z,19.46
2023-05-08T10:16:42.802Z,19.42
2023-05-08T10:19:17.505Z,19.37
2023-05-08T10:21:50.435Z,19.36
2023-05-08T10:24:21.058Z,19.38
2023-05-08T10:27:06.178Z,19.41
2023-05-08T10:29:43.379Z,19.39
2023-05-08T10:32:11.644Z,19.42
2023-05-08T10:34:41.494Z,19.37
2023-05-08T10:37:11.683Z,19.38
2023-05-08T10:39:41.216Z,19.34
2023-05-08T10:42:10.433Z,19.35
2023-05-08T10:44:39.420Z,19.37
2023-05-08T10:47:14.159Z,19.30
2023-05-08T10:49:50.479Z,19.24
2023-05-08T10:52:31.513Z,19.20
2023-05-08T10:55:17.557Z,19.23
2023-05-08T10:58:03.738Z,19.27
2023-05-08T11:01:13.803Z,19.30
2023-05-08T11:03:44.165Z,19.37
2023-05-08T11:06:12.793Z,19.43
2023-05-08T11:08:52.445Z,19.48
2023-05-08T11:11:27.731Z,19.47
2023-05-08T11:14:00.765Z,19.47
2023-05-08T11:17:05.113Z,19.49
2023-05-08T11:19:33.525Z,19.49
2023-05-08T11:22:25.835Z,19.53
2023-05-08T11:24:59.796Z,19.60
2023-05-08T11:27:38.705Z,19.68
2023-05-08T11:30:38.565Z,19.75
2023-05-08T11:33:17.109Z,19.83
2023-05-08T11:35:51.562Z,19.78
2023-05-08T11:38:27.509Z,19.81
2023-05-08T11:41:08.131Z,19.91
2023-05-08T11:44:17.648Z,19.95
2023-05-08T11:46:50.735Z,19.98
2023-05-08T11:49:24.505Z,20.00
2023-05-08T11:51:55.172Z,20.01
2023-05-08T11:54:24.450Z,20.06
2023-05-08T11:56:55.114Z,20.08
2023-05-08T11:59:22.975Z,20.11
2023-05-08T12:04:24.562Z,20.10
2023-05-08T12:06:58.413Z,20.08
2023-05-08T12:09:27.145Z,20.05
2023-05-08T12:12:00.431Z,20.04
2023-05-08T12:14:28.444Z,20.07
2023-05-08T12:16:56.091Z,20.14
2023-05-08T12:19:24.468Z,20.20
2023-05-08T12:21:52.869Z,20.27
2023-05-08T12:24:23.095Z,20.32
2023-05-08T12:26:54.128Z,20.33
2023-05-08T12:29:24.003Z,20.21
2023-05-08T12:31:54.499Z,20.19
2023-05-08T12:34:23.477Z,20.18
2023-05-08T12:37:02.819Z,20.18
2023-05-08T12:39:37.591Z,20.21
2023-05-08T12:42:06.460Z,20.26
2023-05-08T12:44:36.259Z,20.25
2023-05-08T12:47:06.020Z,20.33
2023-05-08T12:49:33.986Z,20.38
2023-05-08T12:52:03.608Z,20.40
2023-05-08T12:54:37.028Z,20.45
2023-05-08T12:57:10.904Z,20.49
2023-05-08T12:59:40.883Z,20.51
2023-05-08T13:02:14.365Z,20.50
2023-05-08T13:04:42.146Z,20.46
2023-05-08T13:07:10.566Z,20.44
2023-05-08T13:09:39.581Z,20.44
2023-05-08T13:12:08.491Z,20.45
2023-05-08T13:14:36.063Z,20.43
2023-05-08T13:17:05.004Z,20.40
2023-05-08T13:19:32.543Z,20.38
2023-05-08T13:22:01.839Z,20.35
2023-05-08T13:24:29.536Z,20.31
2023-05-08T13:27:01.444Z,20.25
2023-05-08T13:29:29.528Z,20.24
2023-05-08T13:31:57.987Z,20.19
2023-05-08T13:34:28.477Z,20.19
2023-05-08T13:36:57.449Z,20.13
2023-05-08T13:39:25.036Z,20.14
2023-05-08T13:41:54.512Z,20.12
2023-05-08T13:44:22.087Z,20.12
2023-05-08T13:46:50.008Z,20.10
2023-05-08T13:49:19.144Z,20.09
2023-05-08T13:51:56.440Z,20.07
2023-05-08T13:54:26.545Z,20.06
2023-05-08T13:56:54.145Z,20.08
2023-05-08T13:59:21.920Z,20.10
2023-05-08T14:01:50.906Z,20.11
2023-05-08T14:04:19.100Z,20.12
2023-05-08T14:06:48.279Z,20.14
2023-05-08T14:09:15.837Z,20.18
2023-05-08T14:11:44.076Z,20.18
2023-05-08T14:14:11.640Z,20.20
2023-05-08T14:16:40.147Z,20.21
2023-05-08T14:19:07.816Z,20.25
2023-05-08T14:21:36.702Z,20.35
2023-05-08T14:24:06.604Z,20.28
2023-05-08T14:26:36.551Z,20.31
2023-05-08T14:29:05.104Z,20.31
2023-05-08T14:31:32.769Z,20.35
2023-05-08T14:34:01.153Z,20.42
2023-05-08T14:36:28.731Z,20.46
2023-05-08T14:38:57.561Z,20.45
2023-05-08T14:41:29.961Z,20.48
2023-05-08T14:43:58.759Z,20.46
2023-05-08T14:46:26.510Z,20.48
2023-05-08T14:49:32.763Z,20.55
2023-05-08T14:52:05.585Z,20.57
2023-05-08T14:55:01.670Z,20.52
2023-05-08T14:57:30.833Z,20.50
2023-05-08T14:59:58.410Z,20.59
2023-05-08T15:02:27.134Z,20.70
2023-05-08T15:04:55.600Z,20.73
2023-05-08T15:07:23.204Z,20.78
2023-05-08T15:09:53.464Z,20.85
2023-05-08T15:12:49.168Z,20.86
2023-05-08T15:15:17.204Z,20.87
2023-05-08T15:17:44.805Z,20.95
2023-05-08T15:20:13.573Z,21.03
2023-05-08T15:22:41.656Z,21.13
2023-05-08T15:25:10.478Z,21.13
2023-05-08T15:27:38.094Z,21.07
2023-05-08T15:30:10.485Z,21.09
2023-05-08T15:32:40.208Z,21.01
2023-05-08T15:35:08.534Z,20.91
2023-05-08T15:37:38.307Z,20.80
2023-05-08T15:40:07.198Z,20.84
2023-05-08T15:42:35.480Z,20.64
2023-05-08T15:45:04.068Z,20.43
2023-05-08T15:47:33.266Z,20.27
2023-05-08T15:50:01.076Z,20.14
2023-05-08T15:52:32.506Z,20.02
2023-05-08T15:55:00.065Z,19.97
2023-05-08T15:57:29.849Z,19.89
2023-05-08T15:59:57.570Z,19.87
2023-05-08T16:02:25.353Z,19.88
2023-05-08T16:04:54.521Z,19.82
2023-05-08T16:07:22.596Z,19.82
2023-05-08T16:09:50.273Z,19.78
2023-05-08T16:12:19.753Z,19.69
2023-05-08T16:14:47.628Z,19.65
2023-05-08T16:17:15.395Z,19.52
2023-05-08T16:19:42.961Z,19.45
2023-05-08T16:22:13.483Z,19.44
2023-05-08T16:24:41.289Z,19.39
2023-05-08T16:27:08.863Z,19.37
2023-05-08T16:29:36.968Z,19.33
2023-05-08T16:32:04.702Z,19.31
2023-05-08T16:34:32.351Z,19.31
2023-05-08T16:36:59.993Z,19.33
2023-05-08T16:39:29.498Z,19.33
2023-05-08T16:41:58.067Z,19.37
2023-05-08T16:44:25.621Z,19.33
2023-05-08T16:46:53.364Z,19.33
2023-05-08T16:49:21.042Z,19.35
2023-05-08T16:51:48.681Z,19.36
2023-05-08T16:54:17.985Z,19.39
2023-05-08T16:56:47.506Z,19.35
2023-05-08T16:59:15.121Z,19.36
2023-05-08T17:01:42.927Z,19.32
2023-05-08T17:04:12.475Z,19.26
2023-05-08T17:06:40.711Z,19.26
2023-05-08T17:09:08.353Z,19.25
2023-05-08T17:11:36.143Z,19.27
2023-05-08T17:14:05.485Z,19.29
2023-05-08T17:16:33.668Z,19.28
2023-05-08T17:19:01.492Z,19.21
2023-05-08T17:21:30.922Z,19.18
2023-05-08T17:24:00.264Z,19.18
2023-05-08T17:26:28.577Z,19.16
2023-05-08T17:28:56.159Z,19.16
2023-05-08T17:31:25.593Z,19.15
2023-05-08T17:33:53.474Z,19.15
2023-05-08T17:36:21.566Z,19.13
2023-05-08T17:38:50.440Z,19.12
2023-05-08T17:41:18.049Z,19.07
2023-05-08T17:43:45.626Z,19.00
2023-05-08T17:46:14.631Z,18.99
2023-05-08T17:48:43.603Z,18.95
2023-05-08T17:51:13.221Z,18.93
2023-05-08T17:53:41.218Z,18.94
2023-05-08T17:56:09.414Z,18.93
2023-05-08T17:58:38.999Z,18.92
2023-05-08T18:01:07.821Z,18.87
2023-05-08T18:03:38.025Z,18.83
2023-05-08T18:06:07.384Z,18.81
2023-05-08T18:08:35.430Z,18.77
2023-05-08T18:11:03.134Z,18.70
2023-05-08T18:13:31.490Z,18.68
2023-05-08T18:16:01.173Z,18.64
2023-05-08T18:18:29.695Z,18.61
2023-05-08T18:20:57.277Z,18.58
2023-05-08T18:23:26.338Z,18.54
2023-05-08T18:25:55.490Z,18.50
2023-05-08T18:28:24.251Z,18.45
2023-05-08T18:30:51.886Z,18.40
2023-05-08T18:33:19.495Z,18.35
2023-05-08T18:35:48.933Z,18.29
2023-05-08T18:38:17.545Z,18.27
2023-05-08T18:40:47.421Z,18.23
2023-05-08T18:43:15.365Z,18.21
2023-05-08T18:45:46.577Z,18.15
2023-05-08T18:48:14.203Z,18.12
2023-05-08T18:50:41.827Z,18.05
2023-05-08T18:53:09.759Z,17.99
2023-05-08T18:55:37.673Z,17.94
2023-05-08T18:58:07.131Z,17.88
2023-05-08T19:00:35.528Z,17.83
2023-05-08T19:03:03.261Z,17.77
2023-05-08T19:05:31.354Z,17.71
2023-05-08T19:07:59.002Z,17.65
2023-05-08T19:10:26.885Z,17.60
2023-05-08T19:12:54.485Z,17.55
2023-05-08T19:15:24.520Z,17.50
2023-05-08T19:17:52.760Z,17.47
2023-05-08T19:20:20.836Z,17.42
2023-05-08T19:22:48.571Z,17.36
2023-05-08T19:25:17.567Z,17.32
2023-05-08T19:27:45.194Z,17.27
2023-05-08T19:30:13.630Z,17.23
2023-05-08T19:32:43.110Z,17.19
2023-05-08T19:35:12.618Z,17.14
2023-05-08T19:37:41.186Z,17.11
2023-05-08T19:40:10.970Z,17.04
2023-05-08T19:42:39.135Z,16.99
2023-05-08T19:45:08.602Z,16.95
2023-05-08T19:47:36.374Z,16.92
2023-05-08T19:50:07.721Z,16.88
2023-05-08T19:52:35.877Z,16.84
2023-05-08T19:55:03.466Z,16.79
2023-05-08T19:57:31.132Z,16.74
2023-05-08T19:59:58.845Z,16.72
2023-05-08T20:02:26.708Z,16.70
2023-05-08T20:05:18.561Z,16.67
2023-05-08T20:07:44.527Z,16.63
2023-05-08T20:10:12.582Z,16.61
2023-05-08T20:12:40.649Z,16.58
2023-05-08T20:15:09.787Z,16.57
2023-05-08T20:17:37.506Z,16.56
2023-05-08T20:20:06.072Z,16.55
2023-05-08T20:22:33.790Z,16.54
2023-05-08T20:25:04.668Z,16.52
2023-05-08T20:27:32.588Z,16.52
2023-05-08T20:30:01.001Z,16.49
2023-05-08T20:32:28.791Z,16.47
2023-05-08T20:34:56.928Z,16.46
2023-05-08T20:37:25.420Z,16.44
2023-05-08T20:39:53.167Z,16.43
2023-05-08T20:42:22.156Z,16.40
2023-05-08T20:44:49.717Z,16.37
2023-05-08T20:47:18.022Z,16.35
2023-05-08T20:49:46.505Z,16.32
2023-05-08T20:52:14.117Z,16.31
2023-05-08T20:54:44.318Z,16.30
2023-05-08T20:57:12.853Z,16.28
2023-05-08T20:59:41.756Z,16.26
2023-05-08T21:02:09.515Z,16.25
2023-05-08T21:04:38.008Z,16.25
2023-05-08T21:07:06.093Z,16.22
2023-05-08T21:09:33.835Z,16.22
2023-05-08T21:12:02.493Z,16.20
2023-05-08T21:14:31.916Z,16.18
2023-05-08T21:17:01.693Z,16.16
2023-05-08T21:19:31.542Z,16.14
2023-05-08T21:22:00.135Z,16.13
2023-05-08T21:24:27.786Z,16.13
2023-05-08T21:26:56.020Z,16.12
2023-05-08T21:29:23.611Z,16.11
2023-05-08T21:31:51.245Z,16.10
2023-05-08T21:34:21.256Z,16.07
2023-05-08T21:36:49.336Z,16.08
2023-05-08T21:39:16.931Z,16.04
2023-05-08T21:41:48.531Z,16.02
2023-05-08T21:44:16.328Z,16.00
2023-05-08T21:49:37.031Z,15.92
2023-05-08T21:52:04.816Z,15.89
2023-05-08T21:54:32.552Z,15.85
2023-05-08T21:57:03.552Z,15.82
2023-05-08T21:59:31.195Z,15.79
2023-05-08T22:01:58.941Z,15.76
2023-05-08T22:04:26.540Z,15.72
2023-05-08T22:06:55.639Z,15.68
2023-05-08T22:09:23.247Z,15.67
2023-05-08T22:11:50.924Z,15.64
2023-05-08T22:14:18.713Z,15.61
2023-05-08T22:16:47.286Z,15.57
2023-05-08T22:19:15.086Z,15.54
2023-05-08T22:21:43.409Z,15.51
2023-05-08T22:24:14.871Z,15.48
2023-05-08T22:26:42.688Z,15.45
2023-05-08T22:29:10.221Z,15.41
2023-05-08T22:37:22.258Z,15.29
2023-05-08T22:39:51.192Z,15.24
2023-05-08T22:42:19.312Z,15.21
2023-05-08T22:44:46.923Z,15.18
2023-05-08T22:47:15.407Z,15.13
2023-05-08T22:49:43.824Z,15.11
2023-05-08T22:52:11.525Z,15.10
2023-05-08T22:54:43.015Z,15.08
2023-05-08T22:57:11.969Z,15.04
2023-05-08T22:59:40.109Z,15.04
2023-05-08T23:02:07.999Z,15.00
2023-05-08T23:04:36.076Z,15.00
2023-05-08T23:07:04.606Z,14.96
2023-05-08T23:09:33.160Z,14.94
2023-05-08T23:12:00.755Z,14.92
2023-05-08T23:14:29.702Z,14.90
2023-05-08T23:16:57.376Z,14.88
2023-05-08T23:19:25.046Z,14.86
2023-05-08T23:21:52.691Z,14.86
2023-05-08T23:24:20.550Z,14.85
2023-05-08T23:26:49.560Z,14.85
2023-05-08T23:29:17.218Z,14.84
2023-05-08T23:31:46.195Z,14.84
2023-05-08T23:34:13.800Z,14.84
2023-05-08T23:36:41.619Z,14.83
2023-05-08T23:39:12.936Z,14.83
2023-05-08T23:41:40.527Z,14.84
2023-05-08T23:44:08.216Z,14.84
2023-05-08T23:46:36.098Z,14.85
2023-05-08T23:49:05.642Z,14.84
2023-05-08T23:51:34.059Z,14.82
2023-05-08T23:54:03.184Z,14.79
2023-05-08T23:56:30.960Z,14.79
2023-05-08T23:58:58.502Z,14.79
